Time,TemperatureF,DewpointF,PressureIn,WindDirection,WindDirectionDegrees,WindSpeedMPH,WindSpeedGustMPH,Humidity,HourlyPrecipIn,Conditions,Clouds,dailyrainin,SoftwareType,DateUTC
2013-01-11 00:03:00,29.6,21.4,30.52,WNW,297,1.0,2.0,71,0.00,CLR,,0.00,WeatherDisplay:10.37,2013-01-11 05:03:00,
2013-01-11 00:13:00,28.8,21.0,30.52,WNW,290,1.0,2.0,72,0.00,CLR,,0.00,WeatherDisplay:10.37,2013-01-11 05:13:00,
2013-01-11 00:23:00,28.5,20.9,30.52,NW,312,1.0,4.0,73,0.00,CLR,,0.00,WeatherDisplay:10.37,2013-01-11 05:23:00,
2013-01-11 00:33:00,28.6,21.0,30.52,NNW,334,1.0,3.0,73,0.00,CLR,,0.00,WeatherDisplay:10.37,2013-01-11 05:33:00,
2013-01-11 00:43:00,28.8,20.9,30.52,NNW,335,2.0,4.0,72,0.00,CLR,,0.00,WeatherDisplay:10.37,2013-01-11 05:43:00,
2013-01-11 00:53:00,28.6,20.7,30.51,NNW,327,0.0,4.0,72,0.00,CLR,,0.00,WeatherDisplay:10.37,2013-01-11 05:53:00,
2013-01-11 01:03:00,28.3,20.7,30.50,North,352,1.0,2.0,73,0.00,CLR,,0.00,WeatherDisplay:10.37,2013-01-11 06:03:00,
2013-01-11 01:13:00,27.9,20.7,30.50,North,1,2.0,4.0,74,0.00,CLR,,0.00,WeatherDisplay:10.37,2013-01-11 06:13:00,
2013-01-11 01:23:00,27.9,20.7,30.50,NW,321,1.0,5.0,74,0.00,CLR,,0.00,WeatherDisplay:10.37,2013-01-11 06:23:00,
2013-01-11 01:33:00,27.3,20.4,30.50,NW,313,2.0,4.0,75,0.00,CLR,,0.00,WeatherDisplay:10.37,2013-01-11 06:33:00,
2013-01-11 01:43:00,26.8,20.2,30.50,NW,315,1.0,3.0,76,0.00,CLR,,0.00,WeatherDisplay:10.37,2013-01-11 06:43:00,
2013-01-11 01:53:00,26.3,20.4,30.50,NW,315,0.0,3.0,78,0.00,CLR,,0.00,WeatherDisplay:10.37,2013-01-11 06:53:00,
2013-01-11 02:03:00,26.1,20.2,30.50,NW,319,1.0,3.0,78,0.00,CLR,,0.00,WeatherDisplay:10.37,2013-01-11 07:03:00,
2013-01-11 02:13:00,26.1,20.2,30.49,NW,322,0.0,2.0,78,0.00,CLR,,0.00,WeatherDisplay:10.37,2013-01-11 07:13:00,
2013-01-11 02:23:00,26.0,20.1,30.49,NW,319,0.0,3.0,78,0.00,CLR,,0.00,WeatherDisplay:10.37,2013-01-11 07:23:00,
2013-01-11 02:33:00,25.7,20.1,30.49,NW,312,1.0,2.0,79,0.00,CLR,,0.00,WeatherDisplay:10.37,2013-01-11 07:33:00,
2013-01-11 02:43:00,25.5,20.2,30.49,NW,310,1.0,2.0,80,0.00,CLR,,0.00,WeatherDisplay:10.37,2013-01-11 07:43:00,
2013-01-11 02:53:00,24.9,19.6,30.49,NW,310,1.0,2.0,80,0.00,CLR,,0.00,WeatherDisplay:10.37,2013-01-11 07:53:00,
2013-01-11 03:03:00,24.8,20.1,30.49,NW,309,0.0,3.0,82,0.00,CLR,,0.00,WeatherDisplay:10.37,2013-01-11 08:03:00,
2013-01-11 03:13:00,24.7,20.0,30.49,NW,309,0.0,2.0,82,0.00,CLR,,0.00,WeatherDisplay:10.37,2013-01-11 08:13:00,
2013-01-11 03:23:00,24.6,19.9,30.48,NW,308,0.0,2.0,82,0.00,CLR,,0.00,WeatherDisplay:10.37,2013-01-11 08:23:00,
2013-01-11 03:33:00,24.8,19.8,30.48,NW,307,0.0,0.0,81,0.00,CLR,,0.00,WeatherDisplay:10.37,2013-01-11 08:33:00,
2013-01-11 03:43:00,24.6,19.9,30.48,NW,309,0.0,0.0,82,0.00,CLR,,0.00,WeatherDisplay:10.37,2013-01-11 08:43:00,
2013-01-11 03:53:00,25.2,20.2,30.47,NW,310,0.0,3.0,81,0.00,CLR,,0.00,WeatherDisplay:10.37,2013-01-11 08:53:00,
2013-01-11 04:03:00,25.4,20.1,30.47,NW,308,2.0,3.0,80,0.00,CLR,,0.00,WeatherDisplay:10.37,2013-01-11 09:03:00,
2013-01-11 04:13:00,25.4,20.1,30.47,NW,310,0.0,3.0,80,0.00,CLR,,0.00,WeatherDisplay:10.37,2013-01-11 09:13:00,
2013-01-11 04:23:00,24.9,19.9,30.47,NW,312,0.0,1.0,81,0.00,CLR,,0.00,WeatherDisplay:10.37,2013-01-11 09:23:00,
2013-01-11 04:33:00,24.6,19.9,30.47,NW,311,0.0,0.0,82,0.00,CLR,,0.00,WeatherDisplay:10.37,2013-01-11 09:33:00,
2013-01-11 04:43:00,24.5,19.8,30.47,NW,308,0.0,0.0,82,0.00,CLR,,0.00,WeatherDisplay:10.37,2013-01-11 09:43:00,
2013-01-11 04:53:00,24.2,19.8,30.47,NW,309,2.0,3.0,83,0.00,CLR,,0.00,WeatherDisplay:10.37,2013-01-11 09:53:00,
2013-01-11 05:03:00,24.4,19.7,30.47,NW,308,0.0,2.0,82,0.00,CLR,,0.00,WeatherDisplay:10.37,2013-01-11 10:03:00,
2013-01-11 05:13:00,24.4,19.7,30.47,NW,310,0.0,1.0,82,0.00,CLR,,0.00,WeatherDisplay:10.37,2013-01-11 10:13:00,
2013-01-11 05:23:00,24.6,19.9,30.47,NW,310,2.0,3.0,82,0.00,CLR,,0.00,WeatherDisplay:10.37,2013-01-11 10:23:00,
2013-01-11 05:33:00,24.8,20.1,30.47,NW,312,1.0,3.0,82,0.00,CLR,,0.00,WeatherDisplay:10.37,2013-01-11 10:33:00,
2013-01-11 05:43:00,24.9,19.9,30.48,NW,314,0.0,3.0,81,0.00,CLR,,0.00,WeatherDisplay:10.37,2013-01-11 10:43:00,
2013-01-11 05:53:00,24.8,19.8,30.48,NW,311,0.0,1.0,81,0.00,CLR,,0.00,WeatherDisplay:10.37,2013-01-11 10:53:00,
2013-01-11 06:03:00,24.8,19.8,30.48,NW,316,0.0,0.0,81,0.00,CLR,,0.00,WeatherDisplay:10.37,2013-01-11 11:03:00,
2013-01-11 06:13:00,24.8,20.1,30.48,NW,311,0.0,2.0,82,0.00,CLR,,0.00,WeatherDisplay:10.37,2013-01-11 11:13:00,
2013-01-11 06:23:00,24.8,20.1,30.48,NW,309,0.0,0.0,82,0.00,CLR,,0.00,WeatherDisplay:10.37,2013-01-11 11:23:00,
2013-01-11 06:33:00,24.8,20.1,30.48,NW,313,1.0,2.0,82,0.00,CLR,,0.00,WeatherDisplay:10.37,2013-01-11 11:33:00,
2013-01-11 06:43:00,25.1,20.4,30.48,NW,313,0.0,2.0,82,0.00,CLR,,0.00,WeatherDisplay:10.37,2013-01-11 11:43:00,
2013-01-11 06:53:00,25.1,20.4,30.49,NW,314,0.0,1.0,82,0.00,CLR,,0.00,WeatherDisplay:10.37,2013-01-11 11:53:00,
2013-01-11 07:03:00,25.1,20.4,30.49,NW,320,0.0,0.0,82,0.00,CLR,,0.00,WeatherDisplay:10.37,2013-01-11 12:03:00,
2013-01-11 07:13:00,25.1,20.7,30.49,NW,315,0.0,0.0,83,0.00,CLR,,0.00,WeatherDisplay:10.37,2013-01-11 12:13:00,
2013-01-11 07:23:00,25.1,20.7,30.48,NW,310,0.0,1.0,83,0.00,CLR,,0.00,WeatherDisplay:10.37,2013-01-11 12:23:00,
2013-01-11 07:33:00,25.2,20.5,30.48,NW,304,0.0,1.0,82,0.00,CLR,,0.00,WeatherDisplay:10.37,2013-01-11 12:33:00,
2013-01-11 07:43:00,25.5,20.8,30.48,WNW,303,0.0,0.0,82,0.00,CLR,,0.00,WeatherDisplay:10.37,2013-01-11 12:43:00,
2013-01-11 07:53:00,25.7,21.3,30.49,NW,304,0.0,0.0,83,0.00,CLR,,0.00,WeatherDisplay:10.37,2013-01-11 12:53:00,
2013-01-11 08:03:00,25.8,21.1,30.49,NW,304,0.0,0.0,82,0.00,CLR,,0.00,WeatherDisplay:10.37,2013-01-11 13:03:00,
2013-01-11 08:13:00,26.3,21.8,30.49,NW,304,1.0,2.0,83,0.00,CLR,,0.00,WeatherDisplay:10.37,2013-01-11 13:13:00,
2013-01-11 08:23:00,26.6,21.8,30.50,NW,304,2.0,3.0,82,0.00,CLR,,0.00,WeatherDisplay:10.37,2013-01-11 13:23:00,
2013-01-11 08:33:00,26.9,21.8,30.50,NW,304,0.0,2.0,81,0.00,CLR,,0.00,WeatherDisplay:10.37,2013-01-11 13:33:00,
2013-01-11 08:43:00,27.5,22.4,30.49,NW,304,0.0,0.0,81,0.00,CLR,,0.00,WeatherDisplay:10.37,2013-01-11 13:43:00,
2013-01-11 08:53:00,28.1,22.8,30.49,NW,304,0.0,0.0,80,0.00,CLR,,0.00,WeatherDisplay:10.37,2013-01-11 13:53:00,
2013-01-11 09:03:00,28.6,22.9,30.49,NW,304,0.0,0.0,79,0.00,CLR,,0.00,WeatherDisplay:10.37,2013-01-11 14:03:00,
2013-01-11 09:13:00,29.2,23.2,30.49,NW,304,0.0,0.0,78,0.00,CLR,,0.00,WeatherDisplay:10.37,2013-01-11 14:13:00,
2013-01-11 09:23:00,29.7,23.1,30.49,NW,304,0.0,0.0,76,0.00,CLR,,0.00,WeatherDisplay:10.37,2013-01-11 14:23:00,
2013-01-11 09:33:00,30.3,22.7,30.49,East,83,2.0,3.0,73,0.00,CLR,,0.00,WeatherDisplay:10.37,2013-01-11 14:33:00,
2013-01-11 09:43:00,30.4,22.8,30.48,East,88,0.0,2.0,73,0.00,CLR,,0.00,WeatherDisplay:10.37,2013-01-11 14:43:00,
2013-01-11 09:53:00,30.6,22.6,30.48,East,88,2.0,2.0,72,0.00,CLR,,0.00,WeatherDisplay:10.37,2013-01-11 14:53:00,
2013-01-11 10:03:00,30.7,22.4,30.48,East,88,1.0,2.0,71,0.00,CLR,,0.00,WeatherDisplay:10.37,2013-01-11 15:03:00,
2013-01-11 10:13:00,30.7,22.8,30.48,East,91,2.0,3.0,72,0.00,CLR,,0.00,WeatherDisplay:10.37,2013-01-11 15:13:00,
2013-01-11 10:23:00,31.0,23.0,30.46,East,93,1.0,3.0,72,0.00,CLR,,0.00,WeatherDisplay:10.37,2013-01-11 15:23:00,
2013-01-11 10:33:00,31.6,23.3,30.46,East,94,1.0,2.0,71,0.00,CLR,,0.00,WeatherDisplay:10.37,2013-01-11 15:33:00,
2013-01-11 10:43:00,31.9,23.6,30.46,ESE,103,3.0,4.0,71,0.00,CLR,,0.00,WeatherDisplay:10.37,2013-01-11 15:43:00,
2013-01-11 10:53:00,32.6,23.6,30.44,SE,136,1.0,5.0,69,0.00,CLR,,0.00,WeatherDisplay:10.37,2013-01-11 15:53:00,
2013-01-11 11:03:00,32.9,23.5,30.44,SE,126,2.0,6.0,68,0.00,CLR,,0.00,WeatherDisplay:10.37,2013-01-11 16:03:00,
2013-01-11 11:13:00,33.1,23.7,30.43,SE,132,2.0,4.0,68,0.00,CLR,,0.00,WeatherDisplay:10.37,2013-01-11 16:13:00,
2013-01-11 11:23:00,33.2,23.4,30.43,SE,129,2.0,5.0,67,0.00,CLR,,0.00,WeatherDisplay:10.37,2013-01-11 16:23:00,
2013-01-11 11:33:00,33.4,24.0,30.43,SE,137,0.0,4.0,68,0.00,CLR,,0.00,WeatherDisplay:10.37,2013-01-11 16:33:00,
2013-01-11 11:43:00,34.1,23.9,30.43,SSE,148,0.0,2.0,66,0.00,CLR,,0.00,WeatherDisplay:10.37,2013-01-11 16:43:00,
2013-01-11 11:53:00,34.3,24.8,30.42,South,172,1.0,4.0,68,0.00,CLR,,0.00,WeatherDisplay:10.37,2013-01-11 16:53:00,
2013-01-11 12:03:00,34.6,25.1,30.42,SSW,197,1.0,3.0,68,0.00,CLR,,0.00,WeatherDisplay:10.37,2013-01-11 17:03:00,
2013-01-11 12:13:00,34.7,25.2,30.41,SSW,195,1.0,3.0,68,0.00,CLR,,0.00,WeatherDisplay:10.37,2013-01-11 17:13:00,
2013-01-11 12:23:00,34.7,25.2,30.40,SSE,154,2.0,3.0,68,0.00,CLR,,0.00,WeatherDisplay:10.37,2013-01-11 17:23:00,
2013-01-11 12:33:00,34.7,25.9,30.40,SSE,156,1.0,3.0,70,0.00,CLR,,0.00,WeatherDisplay:10.37,2013-01-11 17:33:00,
2013-01-11 12:43:00,34.8,25.7,30.40,SSE,162,2.0,4.0,69,0.00,CLR,,0.00,WeatherDisplay:10.37,2013-01-11 17:43:00,
2013-01-11 12:53:00,35.0,26.2,30.38,SE,138,1.0,4.0,70,0.00,CLR,,0.00,WeatherDisplay:10.37,2013-01-11 17:53:00,
2013-01-11 13:03:00,35.3,26.5,30.38,SSE,161,1.0,3.0,70,0.00,CLR,,0.00,WeatherDisplay:10.37,2013-01-11 18:03:00,
2013-01-11 13:13:00,35.3,26.5,30.39,SSE,168,0.0,3.0,70,0.00,BKN,,0.00,WeatherDisplay:10.37,2013-01-11 18:13:00,
2013-01-11 13:23:00,35.3,26.5,30.38,SSW,193,1.0,4.0,70,0.00,BKN,,0.00,WeatherDisplay:10.37,2013-01-11 18:23:00,
2013-01-11 13:33:00,35.3,26.5,30.38,SE,140,3.0,5.0,70,0.00,BKN,,0.00,WeatherDisplay:10.37,2013-01-11 18:33:00,
2013-01-11 13:43:00,35.1,26.6,30.37,SE,135,2.0,5.0,71,0.00,BKN,,0.00,WeatherDisplay:10.37,2013-01-11 18:43:00,
2013-01-11 13:53:00,35.0,26.5,30.37,SSE,158,0.0,3.0,71,0.00,BKN,,0.00,WeatherDisplay:10.37,2013-01-11 18:53:00,
2013-01-11 14:03:00,35.1,27.0,30.37,SSE,157,1.0,4.0,72,0.00,BKN,,0.00,WeatherDisplay:10.37,2013-01-11 19:03:00,
2013-01-11 14:13:00,35.1,27.0,30.36,SE,133,2.0,5.0,72,0.00,BKN,,0.00,WeatherDisplay:10.37,2013-01-11 19:13:00,
2013-01-11 14:23:00,35.1,27.0,30.35,SE,145,1.0,5.0,72,0.00,BKN,,0.00,WeatherDisplay:10.37,2013-01-11 19:23:00,
2013-01-11 14:33:00,35.1,27.0,30.35,SSE,148,2.0,5.0,72,0.00,BKN,,0.00,WeatherDisplay:10.37,2013-01-11 19:33:00,
2013-01-11 14:43:00,35.1,27.0,30.35,SSE,160,1.0,5.0,72,0.00,BKN,,0.00,WeatherDisplay:10.37,2013-01-11 19:43:00,
2013-01-11 14:53:00,35.0,27.2,30.34,South,170,2.0,5.0,73,0.00,BKN,,0.00,WeatherDisplay:10.37,2013-01-11 19:53:00,
2013-01-11 15:03:00,34.8,27.0,30.34,SSE,156,1.0,4.0,73,0.00,BKN,,0.00,WeatherDisplay:10.37,2013-01-11 20:03:00,
2013-01-11 15:13:00,34.8,27.0,30.34,SSE,166,1.0,4.0,73,0.00,OVC,,0.00,WeatherDisplay:10.37,2013-01-11 20:13:00,
2013-01-11 15:23:00,34.7,26.9,30.34,SE,132,0.0,3.0,73,0.00,OVC,,0.00,WeatherDisplay:10.37,2013-01-11 20:23:00,
2013-01-11 15:33:00,34.7,26.9,30.34,SE,132,0.0,0.0,73,0.00,OVC,,0.00,WeatherDisplay:10.37,2013-01-11 20:33:00,
2013-01-11 15:43:00,34.8,27.4,30.34,SE,132,1.0,2.0,74,0.00,OVC,,0.00,WeatherDisplay:10.37,2013-01-11 20:43:00,
2013-01-11 15:53:00,34.7,27.3,30.33,SE,132,0.0,1.0,74,0.00,OVC,,0.00,WeatherDisplay:10.37,2013-01-11 20:53:00,
2013-01-11 16:03:00,34.6,27.2,30.33,SE,143,1.0,4.0,74,0.00,OVC,,0.00,WeatherDisplay:10.37,2013-01-11 21:03:00,
2013-01-11 16:13:00,34.6,27.5,30.32,SSE,147,0.0,3.0,75,0.00,OVC,,0.00,WeatherDisplay:10.37,2013-01-11 21:13:00,
2013-01-11 16:23:00,34.4,27.3,30.32,SSE,148,1.0,2.0,75,0.00,OVC,,0.00,WeatherDisplay:10.37,2013-01-11 21:23:00,
2013-01-11 16:33:00,34.3,27.2,30.32,SSE,148,0.0,2.0,75,0.00,-RA,,0.00,WeatherDisplay:10.37,2013-01-11 21:33:00,
2013-01-11 16:43:00,34.1,28.0,30.31,SSE,148,2.0,3.0,78,0.00,-RA,,0.00,WeatherDisplay:10.37,2013-01-11 21:43:00,
2013-01-11 16:53:00,33.8,28.0,30.30,SE,146,2.0,4.0,79,0.00,-RA,,0.00,WeatherDisplay:10.37,2013-01-11 21:53:00,
2013-01-11 17:03:00,33.5,28.0,30.30,SE,144,1.0,4.0,80,0.00,-RA,,0.00,WeatherDisplay:10.37,2013-01-11 22:03:00,
2013-01-11 17:13:00,33.4,28.8,30.30,SE,144,0.0,0.0,83,0.01,-RA,,0.01,WeatherDisplay:10.37,2013-01-11 22:13:00,
2013-01-11 17:23:00,33.1,28.8,30.30,SE,143,0.0,0.0,84,0.00,-RA,,0.01,WeatherDisplay:10.37,2013-01-11 22:23:00,
2013-01-11 17:33:00,32.9,28.9,30.30,SE,143,0.0,0.0,85,0.00,-RA,,0.01,WeatherDisplay:10.37,2013-01-11 22:33:00,
2013-01-11 17:43:00,32.8,29.1,30.30,SE,144,0.0,2.0,86,0.01,-RA,,0.02,WeatherDisplay:10.37,2013-01-11 22:43:00,
2013-01-11 17:53:00,32.6,29.2,30.29,SE,143,0.0,1.0,87,0.00,-RA,,0.02,WeatherDisplay:10.37,2013-01-11 22:53:00,
2013-01-11 18:03:00,32.5,29.3,30.29,SE,143,0.0,2.0,88,0.00,-RA,,0.02,WeatherDisplay:10.37,2013-01-11 23:03:00,
2013-01-11 18:13:00,32.5,29.6,30.28,SE,144,0.0,3.0,89,0.00,-RA,,0.02,WeatherDisplay:10.37,2013-01-11 23:13:00,
2013-01-11 18:23:00,32.5,29.6,30.27,SE,141,1.0,3.0,89,0.01,-RA,,0.03,WeatherDisplay:10.37,2013-01-11 23:23:00,
2013-01-11 18:33:00,32.3,29.7,30.27,SE,138,0.0,3.0,90,0.00,-RA,,0.03,WeatherDisplay:10.37,2013-01-11 23:33:00,
2013-01-11 18:43:00,32.2,29.9,30.27,SE,134,0.0,2.0,91,0.00,-RA,,0.03,WeatherDisplay:10.37,2013-01-11 23:43:00,
2013-01-11 18:53:00,32.2,30.1,30.27,SSE,154,0.0,2.0,92,0.00,-RA,,0.03,WeatherDisplay:10.37,2013-01-11 23:53:00,
2013-01-11 19:03:00,32.2,30.1,30.26,SSE,163,0.0,2.0,92,0.00,-RA,,0.03,WeatherDisplay:10.37,2013-01-12 00:03:00,
2013-01-11 19:13:00,32.2,30.4,30.26,SSE,163,0.0,0.0,93,0.01,-RA,,0.04,WeatherDisplay:10.37,2013-01-12 00:13:00,
2013-01-11 19:23:00,32.3,30.5,30.25,SSE,162,1.0,2.0,93,0.00,OVC,,0.04,WeatherDisplay:10.37,2013-01-12 00:23:00,
2013-01-11 19:33:00,32.2,30.4,30.25,SSE,162,0.0,1.0,93,0.00,-RA,,0.04,WeatherDisplay:10.37,2013-01-12 00:33:00,
2013-01-11 19:43:00,32.2,30.7,30.25,SSE,163,0.0,1.0,94,0.00,-RA,,0.04,WeatherDisplay:10.37,2013-01-12 00:43:00,
2013-01-11 19:53:00,32.2,30.7,30.25,SSE,161,0.0,1.0,94,0.01,-RA,,0.05,WeatherDisplay:10.37,2013-01-12 00:53:00,
2013-01-11 20:03:00,32.2,30.7,30.25,SSE,163,0.0,0.0,94,0.01,-RA,,0.06,WeatherDisplay:10.37,2013-01-12 01:03:00,
2013-01-11 20:13:00,32.3,31.0,30.25,SSE,163,1.0,2.0,95,0.00,-RA,,0.06,WeatherDisplay:10.37,2013-01-12 01:13:00,
2013-01-11 20:23:00,32.3,31.0,30.25,SSE,162,0.0,1.0,95,0.01,-RA,,0.07,WeatherDisplay:10.37,2013-01-12 01:23:00,
2013-01-11 20:33:00,32.3,31.0,30.24,SSE,164,0.0,1.0,95,0.01,-RA,,0.08,WeatherDisplay:10.37,2013-01-12 01:33:00,
2013-01-11 20:43:00,32.3,31.3,30.24,SSE,163,0.0,1.0,96,0.01,-RA,,0.09,WeatherDisplay:10.37,2013-01-12 01:43:00,
2013-01-11 20:53:00,32.3,31.3,30.24,SSE,162,1.0,2.0,96,0.01,-RA,,0.10,WeatherDisplay:10.37,2013-01-12 01:53:00,
2013-01-11 21:03:00,32.3,31.3,30.24,SSE,153,0.0,2.0,96,0.00,-RA,,0.10,WeatherDisplay:10.37,2013-01-12 02:03:00,
2013-01-11 21:13:00,32.4,31.6,30.23,SSE,162,0.0,1.0,97,0.01,-RA,,0.11,WeatherDisplay:10.37,2013-01-12 02:13:00,
2013-01-11 21:23:00,32.5,31.7,30.23,SSE,162,0.0,1.0,97,0.00,-RA,,0.11,WeatherDisplay:10.37,2013-01-12 02:23:00,
2013-01-11 21:33:00,32.5,31.7,30.23,SSE,161,0.0,2.0,97,0.01,-RA,,0.12,WeatherDisplay:10.37,2013-01-12 02:33:00,
2013-01-11 21:43:00,32.8,32.0,30.23,SSE,162,1.0,3.0,97,0.00,-RA,,0.12,WeatherDisplay:10.37,2013-01-12 02:43:00,
2013-01-11 21:53:00,32.8,32.0,30.22,SSE,162,1.0,2.0,97,0.00,-RA,,0.12,WeatherDisplay:10.37,2013-01-12 02:53:00,
2013-01-11 22:03:00,32.6,31.8,30.22,SSE,159,1.0,3.0,97,0.00,,,0.12,WeatherDisplay:10.37,2013-01-12 03:03:00,
2013-01-11 22:13:00,32.8,32.0,30.21,SE,129,1.0,3.0,97,0.00,,,0.12,WeatherDisplay:10.37,2013-01-12 03:13:00,
2013-01-11 22:23:00,33.5,33.0,30.20,ESE,112,1.0,3.0,98,0.00,,,0.12,WeatherDisplay:10.37,2013-01-12 03:23:00,
2013-01-11 22:33:00,33.7,33.2,30.20,ESE,116,1.0,4.0,98,0.00,,,0.12,WeatherDisplay:10.37,2013-01-12 03:33:00,
2013-01-11 22:43:00,34.0,33.2,30.21,ESE,117,1.0,2.0,97,0.00,,,0.12,WeatherDisplay:10.37,2013-01-12 03:43:00,
2013-01-11 22:53:00,34.1,33.3,30.21,ESE,116,1.0,3.0,97,0.00,,,0.12,WeatherDisplay:10.37,2013-01-12 03:53:00,
2013-01-11 23:03:00,34.1,33.3,30.21,ESE,116,1.0,3.0,97,0.00,,,0.12,WeatherDisplay:10.37,2013-01-12 04:03:00,
2013-01-11 23:13:00,33.7,32.9,30.22,East,85,1.0,3.0,97,0.00,-RA,,0.12,WeatherDisplay:10.37,2013-01-12 04:13:00,
2013-01-11 23:23:00,33.7,32.9,30.22,NE,52,1.0,4.0,97,0.00,-RA,,0.12,WeatherDisplay:10.37,2013-01-12 04:23:00,
2013-01-11 23:33:00,33.8,33.3,30.22,ENE,73,2.0,3.0,98,0.00,-RA,,0.12,WeatherDisplay:10.37,2013-01-12 04:33:00,
2013-01-11 23:43:00,33.8,33.3,30.23,ENE,75,1.0,3.0,98,0.00,-RA,,0.12,WeatherDisplay:10.37,2013-01-12 04:43:00,
2013-01-11 23:53:00,33.8,33.3,30.22,East,88,1.0,3.0,98,0.01,-RA,,0.13,WeatherDisplay:10.37,2013-01-12 04:53:00,